sensor_id;sensor_type;location;lat;lon;timestamp;pressure;altitude;pressure_sealevel;temperature;humidity
51081;BME280;37130;55.670;37.596;2022-12-18T00:00:00;98991.28;;;-4.84;100.00
51081;BME280;37130;55.670;37.596;2022-12-18T00:02:29;98980.94;;;-4.86;100.00
51081;BME280;37130;55.670;37.596;2022-12-18T00:04:57;98903.25;;;-5.35;100.00
51081;BME280;37130;55.670;37.596;2022-12-18T00:07:24;98979.22;;;-4.85;100.00
51081;BME280;37130;55.670;37.596;2022-12-18T00:09:52;98970.56;;;-4.99;100.00
51081;BME280;37130;55.670;37.596;2022-12-18T00:12:19;98974.00;;;-4.96;100.00
51081;BME280;37130;55.670;37.596;2022-12-18T00:14:46;98967.09;;;-4.98;100.00
51081;BME280;37130;55.670;37.596;2022-12-18T00:17:14;98963.69;;;-4.97;100.00
51081;BME280;37130;55.670;37.596;2022-12-18T00:19:41;98955.91;;;-5.00;100.00
51081;BME280;37130;55.670;37.596;2022-12-18T00:22:09;98943.00;;;-5.08;100.00
51081;BME280;37130;55.670;37.596;2022-12-18T00:24:37;98944.69;;;-5.07;100.00
51081;BME280;37130;55.670;37.596;2022-12-18T00:27:04;98812.72;;;-5.87;100.00
51081;BME280;37130;55.670;37.596;2022-12-18T00:29:31;98950.72;;;-5.00;100.00
51081;BME280;37130;55.670;37.596;2022-12-18T00:31:59;98943.00;;;-5.00;100.00
51081;BME280;37130;55.670;37.596;2022-12-18T00:34:26;98905.03;;;-5.24;100.00
51081;BME280;37130;55.670;37.596;2022-12-18T00:36:54;98936.97;;;-5.02;100.00
51081;BME280;37130;55.670;37.596;2022-12-18T00:39:21;98932.66;;;-5.07;100.00
51081;BME280;37130;55.670;37.596;2022-12-18T00:41:49;98937.81;;;-5.07;100.00
51081;BME280;37130;55.670;37.596;2022-12-18T00:44:35;98934.34;;;-5.09;100.00
51081;BME280;37130;55.670;37.596;2022-12-18T00:47:03;98923.16;;;-5.09;100.00
51081;BME280;37130;55.670;37.596;2022-12-18T00:49:30;98919.72;;;-5.10;100.00
51081;BME280;37130;55.670;37.596;2022-12-18T00:51:58;98859.34;;;-5.52;100.00
51081;BME280;37130;55.670;37.596;2022-12-18T00:54:26;98908.56;;;-5.07;100.00
51081;BME280;37130;55.670;37.596;2022-12-18T00:56:53;98893.06;;;-5.13;100.00
51081;BME280;37130;55.670;37.596;2022-12-18T00:59:22;98857.72;;;-5.22;100.00
51081;BME280;37130;55.670;37.596;2022-12-18T01:01:50;98802.59;;;-5.55;100.00
51081;BME280;37130;55.670;37.596;2022-12-18T01:04:19;98881.88;;;-5.04;100.00
51081;BME280;37130;55.670;37.596;2022-12-18T01:06:48;98883.59;;;-5.07;100.00
51081;BME280;37130;55.670;37.596;2022-12-18T01:09:15;98720.78;;;-6.02;100.00
51081;BME280;37130;55.670;37.596;2022-12-18T01:11:43;98727.63;;;-6.01;100.00
51081;BME280;37130;55.670;37.596;2022-12-18T01:14:10;98872.41;;;-5.13;100.00
51081;BME280;37130;55.670;37.596;2022-12-18T01:16:38;98836.25;;;-5.24;100.00
51081;BME280;37130;55.670;37.596;2022-12-18T01:19:05;98858.59;;;-5.23;100.00
51081;BME280;37130;55.670;37.596;2022-12-18T01:21:33;98856.03;;;-5.17;100.00
51081;BME280;37130;55.670;37.596;2022-12-18T01:24:03;98866.38;;;-5.15;100.00
51081;BME280;37130;55.670;37.596;2022-12-18T01:26:31;98867.22;;;-5.18;100.00
51081;BME280;37130;55.670;37.596;2022-12-18T01:28:59;98864.63;;;-5.16;100.00
51081;BME280;37130;55.670;37.596;2022-12-18T01:31:28;98867.22;;;-5.24;100.00
51081;BME280;37130;55.670;37.596;2022-12-18T01:33:57;98876.69;;;-5.14;100.00
51081;BME280;37130;55.670;37.596;2022-12-18T01:36:31;98747.41;;;-6.01;100.00
51081;BME280;37130;55.670;37.596;2022-12-18T01:39:00;98834.44;;;-5.37;100.00
51081;BME280;37130;55.670;37.596;2022-12-18T01:41:29;98862.06;;;-5.12;100.00
51081;BME280;37130;55.670;37.596;2022-12-18T01:47:35;98756.91;;;-5.86;100.00
51081;BME280;37130;55.670;37.596;2022-12-18T01:50:34;98856.88;;;-5.25;100.00
51081;BME280;37130;55.670;37.596;2022-12-18T01:53:07;98862.88;;;-5.22;100.00
51081;BME280;37130;55.670;37.596;2022-12-18T01:55:49;98855.16;;;-5.23;100.00
51081;BME280;37130;55.670;37.596;2022-12-18T01:58:19;98864.63;;;-5.19;100.00
51081;BME280;37130;55.670;37.596;2022-12-18T02:00:48;98859.47;;;-5.18;100.00
51081;BME280;37130;55.670;37.596;2022-12-18T02:03:19;98853.44;;;-5.20;100.00
51081;BME280;37130;55.670;37.596;2022-12-18T02:05:58;98850.00;;;-5.17;100.00
51081;BME280;37130;55.670;37.596;2022-12-18T02:13:44;98852.56;;;-5.25;100.00
51081;BME280;37130;55.670;37.596;2022-12-18T02:16:24;98868.03;;;-5.25;100.00
51081;BME280;37130;55.670;37.596;2022-12-18T02:18:58;98860.31;;;-5.25;100.00
51081;BME280;37130;55.670;37.596;2022-12-18T02:21:36;98858.59;;;-5.26;100.00
51081;BME280;37130;55.670;37.596;2022-12-18T02:24:29;98861.16;;;-5.28;100.00
51081;BME280;37130;55.670;37.596;2022-12-18T02:27:09;98863.75;;;-5.29;100.00
51081;BME280;37130;55.670;37.596;2022-12-18T02:29:50;98850.84;;;-5.29;100.00
51081;BME280;37130;55.670;37.596;2022-12-18T02:32:27;98847.38;;;-5.34;100.00
51081;BME280;37130;55.670;37.596;2022-12-18T02:34:58;98857.69;;;-5.30;100.00
51081;BME280;37130;55.670;37.596;2022-12-18T02:37:30;98849.97;;;-5.30;100.00
51081;BME280;37130;55.670;37.596;2022-12-18T02:40:03;98844.78;;;-5.42;100.00
51081;BME280;37130;55.670;37.596;2022-12-18T02:42:34;98843.91;;;-5.44;100.00
51081;BME280;37130;55.670;37.596;2022-12-18T02:45:04;98855.97;;;-5.34;100.00
51081;BME280;37130;55.670;37.596;2022-12-18T02:47:37;98856.84;;;-5.33;100.00
51081;BME280;37130;55.670;37.596;2022-12-18T02:58:40;98862.88;;;-5.28;100.00
51081;BME280;37130;55.670;37.596;2022-12-18T03:04:05;98866.31;;;-5.28;100.00
51081;BME280;37130;55.670;37.596;2022-12-18T03:06:48;98841.34;;;-5.33;100.00
51081;BME280;37130;55.670;37.596;2022-12-18T03:09:41;98842.19;;;-5.37;100.00
51081;BME280;37130;55.670;37.596;2022-12-18T03:12:30;98847.38;;;-5.36;100.00
51081;BME280;37130;55.670;37.596;2022-12-18T03:15:09;98848.25;;;-5.34;100.00
51081;BME280;37130;55.670;37.596;2022-12-18T03:17:52;98841.31;;;-5.41;100.00
51081;BME280;37130;55.670;37.596;2022-12-18T03:20:25;98855.97;;;-5.37;100.00
51081;BME280;37130;55.670;37.596;2022-12-18T03:22:59;98874.03;;;-5.38;100.00
51081;BME280;37130;55.670;37.596;2022-12-18T03:25:30;98793.88;;;-5.78;100.00
51081;BME280;37130;55.670;37.596;2022-12-18T03:28:01;98859.41;;;-5.36;100.00
51081;BME280;37130;55.670;37.596;2022-12-18T03:30:30;98846.50;;;-5.35;100.00
51081;BME280;37130;55.670;37.596;2022-12-18T03:35:40;98846.50;;;-5.35;100.00
51081;BME280;37130;55.670;37.596;2022-12-18T03:38:11;98865.44;;;-5.36;100.00
51081;BME280;37130;55.670;37.596;2022-12-18T03:40:45;98853.41;;;-5.37;100.00
51081;BME280;37130;55.670;37.596;2022-12-18T03:43:47;98852.47;;;-5.45;100.00
51081;BME280;37130;55.670;37.596;2022-12-18T03:48:48;98863.66;;;-5.46;100.00
51081;BME280;37130;55.670;37.596;2022-12-18T03:54:13;98855.88;;;-5.51;100.00
51081;BME280;37130;55.670;37.596;2022-12-18T03:56:58;98845.53;;;-5.58;100.00
51081;BME280;37130;55.670;37.596;2022-12-18T03:59:28;98726.63;;;-6.36;100.00
51081;BME280;37130;55.670;37.596;2022-12-18T04:01:58;98860.16;;;-5.56;100.00
51081;BME280;37130;55.670;37.596;2022-12-18T04:04:29;98855.03;;;-5.54;100.00
51081;BME280;37130;55.670;37.596;2022-12-18T04:07:00;98842.09;;;-5.62;100.00
51081;BME280;37130;55.670;37.596;2022-12-18T04:09:30;98847.25;;;-5.59;100.00
51081;BME280;37130;55.670;37.596;2022-12-18T04:11:59;98844.72;;;-5.51;100.00
51081;BME280;37130;55.670;37.596;2022-12-18T04:14:26;98860.16;;;-5.62;100.00
51081;BME280;37130;55.670;37.596;2022-12-18T04:16:55;98880.84;;;-5.49;100.00
51081;BME280;37130;55.670;37.596;2022-12-18T04:19:29;98894.63;;;-5.47;100.00
51081;BME280;37130;55.670;37.596;2022-12-18T04:21:58;98892.06;;;-5.47;100.00
51081;BME280;37130;55.670;37.596;2022-12-18T04:24:26;98892.03;;;-5.46;100.00
51081;BME280;37130;55.670;37.596;2022-12-18T04:27:04;98894.63;;;-5.46;100.00
51081;BME280;37130;55.670;37.596;2022-12-18T04:29:39;98904.09;;;-5.46;100.00
51081;BME280;37130;55.670;37.596;2022-12-18T04:32:08;98901.50;;;-5.49;100.00
51081;BME280;37130;55.670;37.596;2022-12-18T04:34:36;98931.56;;;-5.52;100.00
51081;BME280;37130;55.670;37.596;2022-12-18T04:37:05;98796.97;;;-6.42;100.00
51081;BME280;37130;55.670;37.596;2022-12-18T04:39:32;98916.88;;;-5.62;100.00
51081;BME280;37130;55.670;37.596;2022-12-18T04:42:08;98932.38;;;-5.60;100.00
51081;BME280;37130;55.670;37.596;2022-12-18T04:44:36;98938.38;;;-5.58;100.00
51081;BME280;37130;55.670;37.596;2022-12-18T04:47:04;98944.44;;;-5.55;100.00
51081;BME280;37130;55.670;37.596;2022-12-18T04:49:31;98945.28;;;-5.60;100.00
51081;BME280;37130;55.670;37.596;2022-12-18T04:51:58;98943.56;;;-5.60;100.00
51081;BME280;37130;55.670;37.596;2022-12-18T04:54:26;98951.28;;;-5.63;100.00
51081;BME280;37130;55.670;37.596;2022-12-18T04:56:54;98957.25;;;-5.67;100.00
51081;BME280;37130;55.670;37.596;2022-12-18T04:59:21;98880.47;;;-6.14;100.00
51081;BME280;37130;55.670;37.596;2022-12-18T05:01:49;98944.38;;;-5.65;100.00
51081;BME280;37130;55.670;37.596;2022-12-18T05:04:16;98944.38;;;-5.68;100.00
51081;BME280;37130;55.670;37.596;2022-12-18T05:06:44;98937.44;;;-5.73;100.00
51081;BME280;37130;55.670;37.596;2022-12-18T05:09:12;98942.63;;;-5.73;100.00
51081;BME280;37130;55.670;37.596;2022-12-18T05:11:39;98948.63;;;-5.74;100.00
51081;BME280;37130;55.670;37.596;2022-12-18T05:14:07;98954.63;;;-5.75;100.00
51081;BME280;37130;55.670;37.596;2022-12-18T05:16:35;98959.78;;;-5.72;100.00
51081;BME280;37130;55.670;37.596;2022-12-18T05:19:03;98952.94;;;-5.71;100.00
51081;BME280;37130;55.670;37.596;2022-12-18T05:21:30;98955.47;;;-5.74;100.00
51081;BME280;37130;55.670;37.596;2022-12-18T05:23:58;98933.91;;;-5.85;100.00
51081;BME280;37130;55.670;37.596;2022-12-18T05:26:25;98907.09;;;-6.17;100.00
51081;BME280;37130;55.670;37.596;2022-12-18T05:28:52;98981.25;;;-5.77;100.00
51081;BME280;37130;55.670;37.596;2022-12-18T05:31:20;98976.94;;;-5.81;100.00
51081;BME280;37130;55.670;37.596;2022-12-18T05:33:47;98990.72;;;-5.76;100.00
51081;BME280;37130;55.670;37.596;2022-12-18T05:36:15;98995.88;;;-5.75;100.00
51081;BME280;37130;55.670;37.596;2022-12-18T05:38:42;99003.66;;;-5.73;100.00
51081;BME280;37130;55.670;37.596;2022-12-18T05:41:10;98949.19;;;-6.14;100.00
51081;BME280;37130;55.670;37.596;2022-12-18T05:43:38;98999.25;;;-5.83;100.00
51081;BME280;37130;55.670;37.596;2022-12-18T05:46:12;99017.34;;;-5.77;100.00
51081;BME280;37130;55.670;37.596;2022-12-18T05:48:40;99022.56;;;-5.71;100.00
51081;BME280;37130;55.670;37.596;2022-12-18T05:51:12;99017.38;;;-5.76;100.00
51081;BME280;37130;55.670;37.596;2022-12-18T05:53:42;99024.28;;;-5.73;100.00
51081;BME280;37130;55.670;37.596;2022-12-18T05:56:12;99020.78;;;-5.80;100.00
51081;BME280;37130;55.670;37.596;2022-12-18T05:58:40;99034.59;;;-5.73;100.00
51081;BME280;37130;55.670;37.596;2022-12-18T06:01:15;99030.25;;;-5.77;100.00
51081;BME280;37130;55.670;37.596;2022-12-18T06:03:43;99033.72;;;-5.75;100.00
51081;BME280;37130;55.670;37.596;2022-12-18T06:06:20;99028.53;;;-5.77;100.00
51081;BME280;37130;55.670;37.596;2022-12-18T06:08:48;99038.88;;;-5.75;100.00
51081;BME280;37130;55.670;37.596;2022-12-18T06:11:18;99045.72;;;-5.74;100.00
51081;BME280;37130;55.670;37.596;2022-12-18T06:13:49;99053.47;;;-5.76;100.00
51081;BME280;37130;55.670;37.596;2022-12-18T06:16:24;99029.28;;;-5.91;100.00
51081;BME280;37130;55.670;37.596;2022-12-18T06:18:51;99061.25;;;-5.71;100.00
51081;BME280;37130;55.670;37.596;2022-12-18T06:21:19;99055.22;;;-5.73;100.00
51081;BME280;37130;55.670;37.596;2022-12-18T06:23:46;99068.13;;;-5.70;100.00
51081;BME280;37130;55.670;37.596;2022-12-18T06:26:15;99071.53;;;-5.74;100.00
51081;BME280;37130;55.670;37.596;2022-12-18T06:28:42;99062.84;;;-5.82;100.00
51081;BME280;37130;55.670;37.596;2022-12-18T06:31:10;99084.41;;;-5.74;100.00
51081;BME280;37130;55.670;37.596;2022-12-18T06:33:38;99074.13;;;-5.73;100.00
51081;BME280;37130;55.670;37.596;2022-12-18T06:36:11;99084.50;;;-5.68;100.00
51081;BME280;37130;55.670;37.596;2022-12-18T06:38:41;99082.78;;;-5.67;100.00
51081;BME280;37130;55.670;37.596;2022-12-18T06:41:12;99106.88;;;-5.61;100.00
51081;BME280;37130;55.670;37.596;2022-12-18T06:43:40;99108.59;;;-5.61;100.00
51081;BME280;37130;55.670;37.596;2022-12-18T06:46:08;99029.94;;;-6.15;100.00
51081;BME280;37130;55.670;37.596;2022-12-18T06:48:36;99118.03;;;-5.66;100.00
51081;BME280;37130;55.670;37.596;2022-12-18T06:51:04;99130.19;;;-5.55;100.00
51081;BME280;37130;55.670;37.596;2022-12-18T06:53:32;99146.59;;;-5.46;100.00
51081;BME280;37130;55.670;37.596;2022-12-18T06:56:05;99141.44;;;-5.43;100.00
51081;BME280;37130;55.670;37.596;2022-12-18T06:58:37;99144.88;;;-5.47;100.00
51081;BME280;37130;55.670;37.596;2022-12-18T07:01:08;99074.00;;;-5.89;100.00
51081;BME280;37130;55.670;37.596;2022-12-18T07:03:42;99143.06;;;-5.56;100.00
51081;BME280;37130;55.670;37.596;2022-12-18T07:06:18;99151.72;;;-5.49;100.00
51081;BME280;37130;55.670;37.596;2022-12-18T07:08:47;99152.59;;;-5.49;100.00
51081;BME280;37130;55.670;37.596;2022-12-18T07:11:16;99158.56;;;-5.53;100.00
51081;BME280;37130;55.670;37.596;2022-12-18T07:13:44;99144.81;;;-5.52;100.00
51081;BME280;37130;55.670;37.596;2022-12-18T07:16:14;99161.22;;;-5.47;100.00
51081;BME280;37130;55.670;37.596;2022-12-18T07:18:51;99065.22;;;-6.10;100.00
51081;BME280;37130;55.670;37.596;2022-12-18T07:21:19;99172.50;;;-5.33;100.00
51081;BME280;37130;55.670;37.596;2022-12-18T07:23:47;99183.69;;;-5.32;100.00
51081;BME280;37130;55.670;37.596;2022-12-18T07:26:18;99079.94;;;-6.00;100.00
51081;BME280;37130;55.670;37.596;2022-12-18T07:28:46;99192.34;;;-5.27;100.00
51081;BME280;37130;55.670;37.596;2022-12-18T07:31:19;99194.09;;;-5.21;100.00
51081;BME280;37130;55.670;37.596;2022-12-18T07:33:48;99201.06;;;-5.16;100.00
51081;BME280;37130;55.670;37.596;2022-12-18T07:36:17;99184.56;;;-5.30;100.00
51081;BME280;37130;55.670;37.596;2022-12-18T07:38:47;99181.94;;;-5.36;100.00
51081;BME280;37130;55.670;37.596;2022-12-18T07:41:15;99204.34;;;-5.32;100.00
51081;BME280;37130;55.670;37.596;2022-12-18T07:43:43;99128.22;;;-5.77;100.00
51081;BME280;37130;55.670;37.596;2022-12-18T07:46:11;99109.19;;;-5.91;100.00
51081;BME280;37130;55.670;37.596;2022-12-18T07:48:42;99210.31;;;-5.38;100.00
51081;BME280;37130;55.670;37.596;2022-12-18T07:51:17;99209.47;;;-5.37;100.00
51081;BME280;37130;55.670;37.596;2022-12-18T07:53:44;99202.66;;;-5.32;100.00
51081;BME280;37130;55.670;37.596;2022-12-18T07:56:12;99189.66;;;-5.39;100.00
51081;BME280;37130;55.670;37.596;2022-12-18T07:58:58;99214.63;;;-5.35;100.00
51081;BME280;37130;55.670;37.596;2022-12-18T08:01:26;99219.03;;;-5.26;100.00
51081;BME280;37130;55.670;37.596;2022-12-18T08:03:54;99222.53;;;-5.20;100.00
51081;BME280;37130;55.670;37.596;2022-12-18T08:06:23;99233.75;;;-5.15;100.00
51081;BME280;37130;55.670;37.596;2022-12-18T08:08:54;99221.78;;;-5.08;100.00
51081;BME280;37130;55.670;37.596;2022-12-18T08:11:23;99256.13;;;-5.14;100.00
51081;BME280;37130;55.670;37.596;2022-12-18T08:13:52;99250.13;;;-5.11;100.00
51081;BME280;37130;55.670;37.596;2022-12-18T08:16:21;99248.44;;;-5.11;100.00
51081;BME280;37130;55.670;37.596;2022-12-18T08:18:49;99272.56;;;-5.07;100.00
51081;BME280;37130;55.670;37.596;2022-12-18T08:21:20;99269.13;;;-5.06;100.00
51081;BME280;37130;55.670;37.596;2022-12-18T08:23:51;99272.53;;;-5.09;100.00
51081;BME280;37130;55.670;37.596;2022-12-18T08:26:19;99271.69;;;-5.11;100.00
51081;BME280;37130;55.670;37.596;2022-12-18T08:28:48;99189.47;;;-5.58;100.00
51081;BME280;37130;55.670;37.596;2022-12-18T08:31:17;99277.75;;;-5.04;100.00
51081;BME280;37130;55.670;37.596;2022-12-18T08:33:48;99251.00;;;-5.12;100.00
51081;BME280;37130;55.670;37.596;2022-12-18T08:36:16;99276.88;;;-5.06;100.00
51081;BME280;37130;55.670;37.596;2022-12-18T08:38:44;99291.50;;;-5.07;100.00
51081;BME280;37130;55.670;37.596;2022-12-18T08:41:14;99280.34;;;-5.05;100.00
51081;BME280;37130;55.670;37.596;2022-12-18T08:43:42;99285.41;;;-5.12;100.00
51081;BME280;37130;55.670;37.596;2022-12-18T08:46:33;99289.78;;;-5.06;100.00
51081;BME280;37130;55.670;37.596;2022-12-18T08:49:01;99242.16;;;-5.36;100.00
51081;BME280;37130;55.670;37.596;2022-12-18T08:51:30;99159.97;;;-5.83;100.00
51081;BME280;37130;55.670;37.596;2022-12-18T08:53:57;99297.59;;;-5.00;100.00
51081;BME280;37130;55.670;37.596;2022-12-18T08:56:25;99303.69;;;-4.95;100.00
51081;BME280;37130;55.670;37.596;2022-12-18T08:58:53;99199.03;;;-5.49;100.00
51081;BME280;37130;55.670;37.596;2022-12-18T09:01:22;99273.53;;;-4.97;100.00
51081;BME280;37130;55.670;37.596;2022-12-18T09:03:50;99292.50;;;-4.91;100.00
51081;BME280;37130;55.670;37.596;2022-12-18T09:06:21;99298.53;;;-4.92;100.00
51081;BME280;37130;55.670;37.596;2022-12-18T09:08:49;99284.72;;;-4.95;100.00
51081;BME280;37130;55.670;37.596;2022-12-18T09:11:21;99303.72;;;-4.89;100.00
51081;BME280;37130;55.670;37.596;2022-12-18T09:14:09;99238.88;;;-5.21;100.00
51081;BME280;37130;55.670;37.596;2022-12-18T09:16:37;99322.78;;;-4.74;100.00
51081;BME280;37130;55.670;37.596;2022-12-18T09:19:05;99326.19;;;-4.81;100.00
51081;BME280;37130;55.670;37.596;2022-12-18T09:21:37;99334.88;;;-4.72;100.00
51081;BME280;37130;55.670;37.596;2022-12-18T09:24:13;99347.88;;;-4.63;100.00
51081;BME280;37130;55.670;37.596;2022-12-18T09:26:41;99258.75;;;-5.12;100.00
51081;BME280;37130;55.670;37.596;2022-12-18T09:29:13;99353.94;;;-4.60;100.00
51081;BME280;37130;55.670;37.596;2022-12-18T09:31:41;99343.59;;;-4.64;100.00
51081;BME280;37130;55.670;37.596;2022-12-18T09:34:08;99345.19;;;-4.72;100.00
51081;BME280;37130;55.670;37.596;2022-12-18T09:36:36;99263.81;;;-5.21;100.00
51081;BME280;37130;55.670;37.596;2022-12-18T09:39:04;99355.69;;;-4.58;100.00
51081;BME280;37130;55.670;37.596;2022-12-18T09:44:34;99360.81;;;-4.59;100.00
51081;BME280;37130;55.670;37.596;2022-12-18T09:47:21;99361.69;;;-4.59;100.00
51081;BME280;37130;55.670;37.596;2022-12-18T09:49:54;99369.50;;;-4.51;100.00
51081;BME280;37130;55.670;37.596;2022-12-18T09:52:34;99366.97;;;-4.47;100.00
51081;BME280;37130;55.670;37.596;2022-12-18T09:57:42;99376.41;;;-4.52;100.00
51081;BME280;37130;55.670;37.596;2022-12-18T10:00:18;99378.22;;;-4.42;100.00
51081;BME280;37130;55.670;37.596;2022-12-18T10:02:46;99378.28;;;-4.37;100.00
51081;BME280;37130;55.670;37.596;2022-12-18T10:05:23;99387.69;;;-4.41;100.00
51081;BME280;37130;55.670;37.596;2022-12-18T10:08:13;99379.78;;;-4.57;100.00
51081;BME280;37130;55.670;37.596;2022-12-18T10:14:23;99387.53;;;-4.60;100.00
51081;BME280;37130;55.670;37.596;2022-12-18T10:19:40;99385.81;;;-4.58;100.00
51081;BME280;37130;55.670;37.596;2022-12-18T10:27:44;99386.72;;;-4.52;100.00
51081;BME280;37130;55.670;37.596;2022-12-18T10:30:17;99381.59;;;-4.50;100.00
51081;BME280;37130;55.670;37.596;2022-12-18T10:32:45;99295.84;;;-5.02;100.00
51081;BME280;37130;55.670;37.596;2022-12-18T10:35:22;99386.63;;;-4.63;100.00
51081;BME280;37130;55.670;37.596;2022-12-18T10:43:38;99402.09;;;-4.67;100.00
51081;BME280;37130;55.670;37.596;2022-12-18T10:51:28;99426.16;;;-4.71;100.00
51081;BME280;37130;55.670;37.596;2022-12-18T10:54:16;99426.16;;;-4.71;100.00
51081;BME280;37130;55.670;37.596;2022-12-18T10:56:44;99359.44;;;-5.11;100.00
51081;BME280;37130;55.670;37.596;2022-12-18T10:59:15;99452.19;;;-4.51;100.00
51081;BME280;37130;55.670;37.596;2022-12-18T11:01:57;99466.81;;;-4.53;100.00
51081;BME280;37130;55.670;37.596;2022-12-18T11:04:28;99460.78;;;-4.55;100.00
51081;BME280;37130;55.670;37.596;2022-12-18T11:07:07;99461.66;;;-4.55;100.00
51081;BME280;37130;55.670;37.596;2022-12-18T11:09:37;99432.09;;;-4.77;100.00
51081;BME280;37130;55.670;37.596;2022-12-18T11:12:25;99465.97;;;-4.55;100.00
51081;BME280;37130;55.670;37.596;2022-12-18T11:14:56;99459.84;;;-4.62;100.00
51081;BME280;37130;55.670;37.596;2022-12-18T11:17:34;99468.41;;;-4.68;100.00
51081;BME280;37130;55.670;37.596;2022-12-18T11:20:05;99451.81;;;-4.85;100.00
51081;BME280;37130;55.670;37.596;2022-12-18T11:22:37;99401.53;;;-5.18;100.00
51081;BME280;37130;55.670;37.596;2022-12-18T11:25:18;99397.19;;;-5.20;100.00
51081;BME280;37130;55.670;37.596;2022-12-18T11:28:03;99464.69;;;-4.88;100.00
51081;BME280;37130;55.670;37.596;2022-12-18T11:30:37;99319.91;;;-5.78;100.00
51081;BME280;37130;55.670;37.596;2022-12-18T11:33:19;99467.22;;;-4.93;100.00
51081;BME280;37130;55.670;37.596;2022-12-18T11:35:55;99488.72;;;-4.95;100.00
51081;BME280;37130;55.670;37.596;2022-12-18T11:38:26;99477.44;;;-5.00;100.00
51081;BME280;37130;55.670;37.596;2022-12-18T11:41:03;99485.25;;;-4.97;100.00
51081;BME280;37130;55.670;37.596;2022-12-18T11:43:44;99475.66;;;-5.06;100.00
51081;BME280;37130;55.670;37.596;2022-12-18T11:46:24;99469.63;;;-5.08;100.00
51081;BME280;37130;55.670;37.596;2022-12-18T11:49:03;99436.66;;;-5.29;100.00
51081;BME280;37130;55.670;37.596;2022-12-18T11:51:41;99500.09;;;-4.81;100.00
51081;BME280;37130;55.670;37.596;2022-12-18T11:54:14;99513.03;;;-4.78;100.00
51081;BME280;37130;55.670;37.596;2022-12-18T12:08:12;99551.84;;;-4.72;100.00
51081;BME280;37130;55.670;37.596;2022-12-18T12:21:41;99576.75;;;-4.78;100.00
51081;BME280;37130;55.670;37.596;2022-12-18T12:26:49;99575.72;;;-4.91;100.00
51081;BME280;37130;55.670;37.596;2022-12-18T12:38:11;99598.19;;;-4.87;100.00
51081;BME280;37130;55.670;37.596;2022-12-18T12:40:47;99591.94;;;-5.01;100.00
51081;BME280;37130;55.670;37.596;2022-12-18T12:43:27;99604.84;;;-5.01;100.00
51081;BME280;37130;55.670;37.596;2022-12-18T12:46:03;99609.13;;;-5.02;100.00
51081;BME280;37130;55.670;37.596;2022-12-18T12:48:41;99623.00;;;-4.97;100.00
51081;BME280;37130;55.670;37.596;2022-12-18T12:53:41;99564.72;;;-5.36;100.00
51081;BME280;37130;55.670;37.596;2022-12-18T12:56:11;99632.53;;;-4.91;100.00
51081;BME280;37130;55.670;37.596;2022-12-18T13:02:13;99650.44;;;-5.02;100.00
51081;BME280;37130;55.670;37.596;2022-12-18T13:04:50;99560.16;;;-5.54;100.00
51081;BME280;37130;55.670;37.596;2022-12-18T13:10:36;99652.06;;;-5.09;100.00
51081;BME280;37130;55.670;37.596;2022-12-18T13:13:10;99670.25;;;-5.01;100.00
51081;BME280;37130;55.670;37.596;2022-12-18T13:15:44;99668.63;;;-4.96;100.00
51081;BME280;37130;55.670;37.596;2022-12-18T13:18:22;99671.28;;;-4.91;100.00
51081;BME280;37130;55.670;37.596;2022-12-18T13:21:02;99684.16;;;-4.93;100.00
51081;BME280;37130;55.670;37.596;2022-12-18T13:23:36;99673.78;;;-4.96;100.00
51081;BME280;37130;55.670;37.596;2022-12-18T13:34:26;99706.47;;;-4.96;100.00
51081;BME280;37130;55.670;37.596;2022-12-18T13:40:00;99700.41;;;-5.00;100.00
51081;BME280;37130;55.670;37.596;2022-12-18T13:45:43;99726.19;;;-5.01;100.00
51081;BME280;37130;55.670;37.596;2022-12-18T13:48:22;99726.19;;;-5.01;100.00
51081;BME280;37130;55.670;37.596;2022-12-18T13:50:58;99734.81;;;-5.02;100.00
51081;BME280;37130;55.670;37.596;2022-12-18T13:53:30;99753.97;;;-4.90;100.00
51081;BME280;37130;55.670;37.596;2022-12-18T13:56:00;99753.19;;;-4.82;100.00
51081;BME280;37130;55.670;37.596;2022-12-18T13:58:27;99760.97;;;-4.81;100.00
51081;BME280;37130;55.670;37.596;2022-12-18T14:00:56;99749.78;;;-4.80;100.00
51081;BME280;37130;55.670;37.596;2022-12-18T14:03:28;99745.31;;;-4.90;100.00
51081;BME280;37130;55.670;37.596;2022-12-18T14:06:03;99764.56;;;-4.73;100.00
51081;BME280;37130;55.670;37.596;2022-12-18T14:08:41;99757.66;;;-4.72;100.00
51081;BME280;37130;55.670;37.596;2022-12-18T14:11:22;99700.16;;;-5.14;100.00
51081;BME280;37130;55.670;37.596;2022-12-18T14:13:52;99756.69;;;-4.80;100.00
51081;BME280;37130;55.670;37.596;2022-12-18T14:16:20;99786.34;;;-4.57;100.00
51081;BME280;37130;55.670;37.596;2022-12-18T14:18:57;99780.28;;;-4.59;100.00
51081;BME280;37130;55.670;37.596;2022-12-18T14:21:46;99801.03;;;-4.54;100.00
51081;BME280;37130;55.670;37.596;2022-12-18T14:24:17;99790.63;;;-4.59;100.00
51081;BME280;37130;55.670;37.596;2022-12-18T14:26:47;99801.00;;;-4.56;100.00
51081;BME280;37130;55.670;37.596;2022-12-18T14:32:06;99813.66;;;-4.73;100.00
51081;BME280;37130;55.670;37.596;2022-12-18T14:34:44;99826.75;;;-4.64;100.00
51081;BME280;37130;55.670;37.596;2022-12-18T14:37:14;99836.13;;;-4.69;100.00
51081;BME280;37130;55.670;37.596;2022-12-18T14:39:59;99707.38;;;-5.44;100.00
51081;BME280;37130;55.670;37.596;2022-12-18T14:42:37;99839.66;;;-4.64;100.00
51081;BME280;37130;55.670;37.596;2022-12-18T14:45:33;99801.81;;;-5.09;100.00
51081;BME280;37130;55.670;37.596;2022-12-18T14:48:08;99854.69;;;-4.88;100.00
51081;BME280;37130;55.670;37.596;2022-12-18T14:50:39;99862.41;;;-4.91;100.00
51081;BME280;37130;55.670;37.596;2022-12-18T14:53:21;99836.13;;;-5.14;100.00
51081;BME280;37130;55.670;37.596;2022-12-18T14:55:51;99872.53;;;-5.02;100.00
51081;BME280;37130;55.670;37.596;2022-12-18T14:58:18;99873.44;;;-5.00;100.00
51081;BME280;37130;55.670;37.596;2022-12-18T15:00:46;99860.16;;;-5.17;100.00